createdAt,value
2022-11-24T00:02:17.047Z,58370.75
2022-11-24T00:04:43.518Z,58434.91
2022-11-24T00:07:10.145Z,58615.00
2022-11-24T00:09:36.684Z,58465.97
2022-11-24T00:12:03.184Z,58374.88
2022-11-24T00:14:29.706Z,58364.53
2022-11-24T00:16:56.245Z,58391.44
2022-11-24T00:19:22.816Z,58391.44
2022-11-24T00:21:49.261Z,58478.38
2022-11-24T00:24:15.823Z,58391.44
2022-11-24T00:26:43.167Z,58401.81
2022-11-24T00:29:09.858Z,58304.50
2022-11-24T00:31:38.263Z,58569.47
2022-11-24T00:34:07.045Z,58345.91
2022-11-24T00:36:35.527Z,58277.59
2022-11-24T00:39:07.056Z,58312.78
2022-11-24T00:41:34.218Z,58356.25
2022-11-24T00:44:00.700Z,58345.91
2022-11-24T00:46:27.917Z,58345.91
2022-11-24T00:48:54.568Z,58327.28
2022-11-24T00:51:23.625Z,58350.06
2022-11-24T00:53:50.256Z,58310.72
2022-11-24T00:56:16.749Z,58381.09
2022-11-24T00:58:43.243Z,58331.41
2022-11-24T01:01:18.434Z,58515.66
2022-11-24T01:03:46.670Z,58300.38
2022-11-24T01:06:19.128Z,58329.34
2022-11-24T01:08:46.368Z,58374.88
2022-11-24T01:11:54.249Z,58341.78
2022-11-24T01:14:24.512Z,58364.53
2022-11-24T01:16:51.135Z,58374.88
2022-11-24T01:19:18.324Z,58347.97
2022-11-24T01:21:44.759Z,58511.50
2022-11-24T01:24:11.859Z,58356.25
2022-11-24T01:26:38.751Z,58358.34
2022-11-24T01:29:05.264Z,58333.50
2022-11-24T01:31:32.734Z,58333.50
2022-11-24T01:33:59.364Z,58316.94
2022-11-24T01:36:26.079Z,58362.47
2022-11-24T01:38:52.524Z,58337.63
2022-11-24T01:41:24.588Z,58385.25
2022-11-24T01:43:52.214Z,58370.75
2022-11-24T01:46:27.691Z,58379.03
2022-11-24T01:49:04.641Z,58339.69
2022-11-24T01:51:33.872Z,58399.72
2022-11-24T01:54:07.092Z,58412.16
2022-11-24T01:56:35.574Z,58352.13
2022-11-24T01:59:03.268Z,58397.66
2022-11-24T02:01:31.437Z,58432.84
2022-11-24T02:03:58.590Z,58408.00
2022-11-24T02:06:28.037Z,58354.19
2022-11-24T02:09:00.740Z,58416.28
2022-11-24T02:11:30.048Z,58387.31
2022-11-24T02:13:57.290Z,58383.16
2022-11-24T02:16:23.897Z,58350.06
2022-11-24T02:18:50.387Z,58374.88
2022-11-24T02:21:17.304Z,58366.59
2022-11-24T02:23:46.790Z,58385.25
2022-11-24T02:26:26.766Z,58350.06
2022-11-24T02:28:53.321Z,58449.41
2022-11-24T02:31:19.836Z,58354.19
2022-11-24T02:33:47.245Z,58368.69
2022-11-24T02:36:13.698Z,58372.81
2022-11-24T02:38:40.099Z,58362.47
2022-11-24T02:41:11.533Z,58391.44
2022-11-24T02:43:55.527Z,58345.91
2022-11-24T02:46:22.289Z,58333.50
2022-11-24T02:48:48.777Z,58594.31
2022-11-24T02:51:15.404Z,58523.94
2022-11-24T02:53:41.892Z,58329.34
2022-11-24T02:56:08.305Z,58399.72
2022-11-24T02:58:34.771Z,58374.88
2022-11-24T03:01:01.625Z,58337.63
2022-11-24T03:03:28.076Z,58379.03
2022-11-24T03:05:54.628Z,58424.56
2022-11-24T03:08:21.090Z,58704.03
2022-11-24T03:10:47.533Z,58430.78
2022-11-24T03:13:14.217Z,58387.31
2022-11-24T03:15:41.183Z,58420.44
2022-11-24T03:18:07.816Z,58376.97
2022-11-24T03:20:34.446Z,58503.22
2022-11-24T03:23:00.861Z,58451.47
2022-11-24T03:25:27.321Z,58515.66
2022-11-24T03:27:56.197Z,58507.38
2022-11-24T03:30:22.698Z,58439.06
2022-11-24T03:32:53.064Z,58695.75
2022-11-24T03:35:20.731Z,58408.00
2022-11-24T03:37:47.217Z,58447.34
2022-11-24T03:40:13.841Z,58434.91
2022-11-24T03:42:40.717Z,58449.41
2022-11-24T03:45:44.767Z,58354.19
2022-11-24T03:47:54.482Z,58439.06
2022-11-24T03:50:20.895Z,58463.91
2022-11-24T03:52:47.303Z,58441.13
2022-11-24T03:55:13.832Z,58447.34
2022-11-24T03:57:40.491Z,58482.53
2022-11-24T04:00:07.969Z,58730.94
2022-11-24T04:02:34.439Z,58457.69
2022-11-24T04:05:00.916Z,58497.03
2022-11-24T04:07:27.388Z,58497.03
2022-11-24T04:09:53.838Z,58532.22
2022-11-24T04:12:38.881Z,58499.09
2022-11-24T04:15:05.788Z,58526.00
2022-11-24T04:17:32.357Z,58536.34
2022-11-24T04:19:58.732Z,58672.97
2022-11-24T04:22:25.291Z,58519.78
2022-11-24T04:24:51.720Z,58654.34
2022-11-24T04:27:18.316Z,58534.28
2022-11-24T04:29:44.736Z,58693.69
2022-11-24T04:32:11.201Z,58588.09
2022-11-24T04:34:37.641Z,58602.59
2022-11-24T04:37:04.198Z,58606.72
2022-11-24T04:39:30.628Z,58567.41
2022-11-24T04:41:57.233Z,58559.13
2022-11-24T04:44:23.836Z,58782.69
2022-11-24T04:46:50.372Z,58596.38
2022-11-24T04:49:16.843Z,58559.13
2022-11-24T04:51:43.586Z,58561.19
2022-11-24T04:54:11.609Z,58573.63
2022-11-24T04:56:38.341Z,58546.69
2022-11-24T04:59:08.523Z,58546.69
2022-11-24T05:01:35.228Z,58583.97
2022-11-24T05:04:01.748Z,58590.19
2022-11-24T05:06:28.276Z,58569.47
2022-11-24T05:08:54.780Z,58548.78
2022-11-24T05:11:21.173Z,58817.88
2022-11-24T05:13:47.574Z,58586.03
2022-11-24T05:16:14.020Z,58546.69
2022-11-24T05:18:40.518Z,58554.97
2022-11-24T05:21:06.959Z,58573.63
2022-11-24T05:23:33.445Z,58629.50
2022-11-24T05:26:01.168Z,58631.56
2022-11-24T05:28:28.467Z,58621.22
2022-11-24T05:30:55.019Z,58573.63
2022-11-24T05:33:22.923Z,58627.44
2022-11-24T05:35:49.702Z,58598.44
2022-11-24T05:38:17.453Z,58656.41
2022-11-24T05:40:44.339Z,58615.00
2022-11-24T05:43:15.535Z,58621.22
2022-11-24T05:45:42.962Z,58590.19
2022-11-24T05:48:11.660Z,58846.88
2022-11-24T05:50:38.374Z,58627.44
2022-11-24T05:53:06.277Z,58633.66
2022-11-24T05:55:32.875Z,58617.09
2022-11-24T05:58:04.907Z,58598.44
2022-11-24T06:00:32.464Z,58627.44
2022-11-24T06:02:59.520Z,58594.31
2022-11-24T06:05:27.218Z,58648.13
2022-11-24T06:07:53.850Z,58623.28
2022-11-24T06:10:22.082Z,58604.66
2022-11-24T06:12:48.498Z,58604.66
2022-11-24T06:15:14.950Z,58631.56
2022-11-24T06:17:41.437Z,58602.59
2022-11-24T06:20:09.340Z,58532.22
2022-11-24T06:22:36.159Z,58623.28
2022-11-24T06:25:02.978Z,58619.16
2022-11-24T06:27:29.392Z,58586.03
2022-11-24T06:29:55.799Z,58610.88
2022-11-24T06:32:22.245Z,58637.78
2022-11-24T06:34:48.872Z,58648.13
2022-11-24T06:37:15.658Z,58648.13
2022-11-24T06:39:42.505Z,58625.38
2022-11-24T06:42:09.128Z,58583.97
2022-11-24T06:44:35.735Z,58623.28
2022-11-24T06:47:02.316Z,58623.28
2022-11-24T06:49:28.703Z,58590.19
2022-11-24T06:51:55.261Z,58594.31
2022-11-24T06:54:22.086Z,58644.00
2022-11-24T06:56:48.540Z,58666.78
2022-11-24T06:59:20.138Z,58706.09
2022-11-24T07:01:47.015Z,58612.94
2022-11-24T07:04:13.777Z,58619.16
2022-11-24T07:06:41.247Z,58704.03
2022-11-24T07:09:09.489Z,58639.84
2022-11-24T07:11:36.514Z,58621.22
2022-11-24T07:14:02.973Z,58615.00
2022-11-24T07:16:29.939Z,58726.81
2022-11-24T07:18:56.392Z,58677.13
2022-11-24T07:21:23.945Z,58718.53
2022-11-24T07:23:54.759Z,58677.13
2022-11-24T07:26:21.678Z,58704.03
2022-11-24T07:28:48.418Z,58693.69
2022-11-24T07:31:17.163Z,58666.78
2022-11-24T07:33:43.847Z,58710.25
2022-11-24T07:36:10.221Z,58685.41
2022-11-24T07:38:36.806Z,58648.13
2022-11-24T07:41:05.738Z,58664.69
2022-11-24T07:43:33.084Z,58766.13
2022-11-24T07:45:59.999Z,58617.09
2022-11-24T07:48:26.806Z,58646.06
2022-11-24T07:50:56.092Z,58631.56
2022-11-24T07:53:22.950Z,58664.69
2022-11-24T07:55:56.714Z,59010.44
2022-11-24T07:58:24.115Z,58708.16
2022-11-24T08:00:52.823Z,58664.69
2022-11-24T08:03:19.266Z,58617.09
2022-11-24T08:08:43.238Z,59084.97
2022-11-24T08:11:12.273Z,58689.53
2022-11-24T08:13:39.109Z,58722.66
2022-11-24T08:16:14.958Z,58919.34
2022-11-24T08:18:41.676Z,58670.91
2022-11-24T08:21:12.225Z,58695.75
2022-11-24T08:23:38.701Z,58966.94
2022-11-24T08:26:08.683Z,58728.88
2022-11-24T08:28:35.769Z,58639.84
2022-11-24T08:31:07.807Z,58672.97
2022-11-24T08:33:34.270Z,58627.44
2022-11-24T08:36:08.807Z,58697.81
2022-11-24T08:38:35.602Z,58668.84
2022-11-24T08:41:03.453Z,58701.97
2022-11-24T08:43:30.062Z,58608.81
2022-11-24T08:46:00.549Z,58602.59
2022-11-24T08:48:27.483Z,58594.31
2022-11-24T08:50:53.922Z,58681.25
2022-11-24T08:53:20.371Z,58639.84
2022-11-24T08:55:46.775Z,58683.34
2022-11-24T08:58:13.184Z,58697.81
2022-11-24T09:00:39.620Z,58710.25
2022-11-24T09:03:06.147Z,58658.50
2022-11-24T09:08:19.597Z,58739.22
2022-11-24T09:10:46.692Z,58683.34
2022-11-24T09:13:13.087Z,58633.66
2022-11-24T09:15:39.462Z,58650.22
2022-11-24T09:18:05.898Z,59043.56
2022-11-24T09:20:32.305Z,58718.53
2022-11-24T09:22:58.681Z,58675.06
2022-11-24T09:25:25.170Z,58730.94
2022-11-24T09:27:51.852Z,58726.81
2022-11-24T09:30:18.677Z,58701.97
2022-11-24T09:32:45.186Z,58714.38
2022-11-24T09:35:11.605Z,58730.94
2022-11-24T09:37:38.141Z,58718.53
2022-11-24T09:40:05.047Z,58697.81
2022-11-24T09:42:31.637Z,58718.53
2022-11-24T09:45:03.943Z,58708.16
2022-11-24T09:47:51.636Z,58691.59
2022-11-24T09:50:26.864Z,58728.88
2022-11-24T09:53:05.928Z,58681.25
2022-11-24T09:55:43.209Z,58735.09
2022-11-24T09:58:15.435Z,58718.53
2022-11-24T10:00:42.481Z,58753.72
2022-11-24T10:03:16.927Z,58788.91
2022-11-24T10:05:43.384Z,58730.94
2022-11-24T10:08:17.844Z,58730.94
2022-11-24T10:10:52.348Z,58933.81
2022-11-24T10:13:54.296Z,58735.09
2022-11-24T10:16:42.372Z,58824.09
2022-11-24T10:19:36.369Z,58819.97
2022-11-24T10:22:30.157Z,58838.59
2022-11-24T10:25:22.425Z,58853.09
2022-11-24T10:27:53.636Z,58853.09
2022-11-24T10:30:23.767Z,58871.72
2022-11-24T10:33:01.803Z,59238.16
2022-11-24T10:35:35.486Z,58908.97
2022-11-24T10:38:07.781Z,58904.84
2022-11-24T10:40:56.665Z,58915.19
2022-11-24T10:43:26.190Z,58913.13
2022-11-24T10:45:52.786Z,58886.22
2022-11-24T10:48:22.590Z,58937.97
2022-11-24T10:50:49.024Z,58942.09
2022-11-24T10:53:22.791Z,58950.38
2022-11-24T10:55:56.968Z,58962.81
2022-11-24T10:58:37.994Z,59020.78
2022-11-24T11:01:14.975Z,58913.13
2022-11-24T11:04:12.255Z,58917.25
2022-11-24T11:06:38.636Z,58946.25
2022-11-24T11:09:07.936Z,58937.97
2022-11-24T11:11:35.468Z,58925.53
2022-11-24T11:14:06.810Z,58971.09
2022-11-24T11:16:40.216Z,58983.50
2022-11-24T11:19:50.649Z,59010.44
2022-11-24T11:22:31.931Z,59109.81
2022-11-24T11:25:18.997Z,59080.81
2022-11-24T11:27:45.610Z,59087.03
2022-11-24T11:36:13.178Z,59043.56
2022-11-24T11:38:40.616Z,59053.91
2022-11-24T11:41:14.127Z,59128.44
2022-11-24T11:43:41.121Z,59051.84
2022-11-24T11:46:13.476Z,59062.19
2022-11-24T11:48:44.742Z,59097.38
2022-11-24T11:51:34.604Z,59033.19
2022-11-24T11:54:17.746Z,59037.34
2022-11-24T11:56:45.994Z,59037.34
2022-11-24T11:59:38.075Z,58998.00
2022-11-24T12:02:04.404Z,59020.78
2022-11-24T12:04:54.111Z,58985.59
2022-11-24T12:07:23.590Z,58958.66
2022-11-24T12:10:14.903Z,59043.56
2022-11-24T12:13:04.603Z,59066.31
2022-11-24T12:15:49.902Z,59095.31
2022-11-24T12:21:36.246Z,59285.78
2022-11-24T12:24:31.997Z,59149.13
2022-11-24T12:27:07.814Z,59033.19
2022-11-24T12:29:57.148Z,59070.47
2022-11-24T12:32:47.915Z,59097.38
2022-11-24T12:35:43.849Z,59029.06
2022-11-24T12:38:37.790Z,59074.59
2022-11-24T12:41:42.661Z,59060.13
2022-11-24T12:44:40.924Z,59070.47
2022-11-24T12:47:15.902Z,59043.56
2022-11-24T12:50:01.392Z,59095.31
2022-11-24T12:52:41.046Z,59165.69
2022-11-24T12:55:14.295Z,59474.19
2022-11-24T12:57:45.380Z,59246.44
2022-11-24T13:00:14.968Z,59238.16
2022-11-24T13:03:03.242Z,59294.06
2022-11-24T13:05:35.677Z,59304.41
2022-11-24T13:08:03.864Z,59318.91
2022-11-24T13:13:49.826Z,59372.75
2022-11-24T13:16:48.462Z,59496.97
2022-11-24T13:19:14.754Z,59314.78
2022-11-24T13:21:41.361Z,59310.63
2022-11-24T13:24:17.504Z,59339.63
2022-11-24T13:27:15.553Z,59563.25
2022-11-24T13:29:49.532Z,59410.00
2022-11-24T13:32:18.906Z,59478.34
2022-11-24T13:35:05.477Z,59600.50
2022-11-24T13:37:35.729Z,59565.31
2022-11-24T13:40:30.978Z,59534.25
2022-11-24T13:42:57.552Z,59528.03
2022-11-24T13:45:39.401Z,59457.63
2022-11-24T13:48:21.662Z,59530.09
2022-11-24T13:50:51.748Z,59455.56
2022-11-24T13:53:22.376Z,59474.19
2022-11-24T13:55:59.220Z,59356.19
2022-11-24T13:58:41.499Z,59300.28
2022-11-24T14:01:07.956Z,59275.44
2022-11-24T14:06:53.038Z,59269.22
2022-11-24T14:09:22.079Z,59304.41
2022-11-24T14:12:39.859Z,59376.88
2022-11-24T14:15:25.755Z,59449.34
2022-11-24T14:17:52.123Z,59356.19
2022-11-24T14:20:27.052Z,59441.06
2022-11-24T14:22:53.682Z,59368.59
2022-11-24T14:25:30.057Z,59459.72
2022-11-24T14:27:56.877Z,59345.84
2022-11-24T14:30:25.146Z,59320.97
2022-11-24T14:33:01.216Z,59202.97
2022-11-24T14:35:31.788Z,59207.09
2022-11-24T14:37:59.874Z,59126.38
2022-11-24T14:40:40.587Z,59132.56
2022-11-24T14:43:28.379Z,59084.97
2022-11-24T14:45:58.234Z,59107.72
2022-11-24T14:48:29.607Z,59087.03
2022-11-24T14:51:20.391Z,59029.06
2022-11-24T14:53:50.583Z,59037.34
2022-11-24T14:56:32.144Z,58995.94
2022-11-24T14:58:59.218Z,58942.09
2022-11-24T15:01:28.985Z,58971.09
2022-11-24T15:04:26.594Z,58954.53
2022-11-24T15:07:12.898Z,58925.53
2022-11-24T15:09:48.487Z,58925.53
2022-11-24T15:12:28.706Z,58913.13
2022-11-24T15:14:58.369Z,58846.88
2022-11-24T15:17:27.771Z,58824.09
2022-11-24T15:20:00.840Z,58859.28
2022-11-24T15:22:33.936Z,58755.78
2022-11-24T15:25:00.514Z,59140.84
2022-11-24T15:27:27.013Z,59016.63
2022-11-24T15:29:53.397Z,58813.75
2022-11-24T15:32:19.908Z,58753.72
2022-11-24T15:34:46.320Z,58979.38
2022-11-24T15:37:12.800Z,58733.00
2022-11-24T15:39:39.229Z,58716.44
2022-11-24T15:42:06.464Z,58799.25
2022-11-24T15:44:35.997Z,58701.97
2022-11-24T15:47:03.477Z,58689.53
2022-11-24T15:49:31.221Z,58807.53
2022-11-24T15:52:01.399Z,58641.94
2022-11-24T15:54:29.865Z,58652.28
2022-11-24T15:56:56.989Z,58619.16
2022-11-24T15:59:24.138Z,58656.41
2022-11-24T16:01:51.290Z,58573.63
2022-11-24T16:04:19.156Z,58658.50
2022-11-24T16:06:46.012Z,58658.50
2022-11-24T16:09:15.480Z,58627.44
2022-11-24T16:11:41.921Z,58648.13
2022-11-24T16:14:08.712Z,58664.69
2022-11-24T16:16:35.255Z,58627.44
2022-11-24T16:19:01.659Z,58561.19
2022-11-24T16:21:28.065Z,58565.34
2022-11-24T16:23:54.644Z,58581.91
2022-11-24T16:26:21.122Z,58526.00
2022-11-24T16:28:47.504Z,58519.78
2022-11-24T16:31:15.820Z,58472.19
2022-11-24T16:33:44.543Z,58511.50
2022-11-24T16:36:11.067Z,58511.50
2022-11-24T16:38:37.636Z,58503.22
2022-11-24T16:41:04.143Z,58463.91
2022-11-24T16:43:30.826Z,58428.72
2022-11-24T16:46:20.235Z,58420.44
2022-11-24T16:48:48.939Z,58370.75
2022-11-24T16:51:15.796Z,58439.06
2022-11-24T16:53:42.876Z,58418.34
2022-11-24T16:56:09.583Z,58395.59
2022-11-24T16:58:40.640Z,58366.59
2022-11-24T17:01:07.970Z,58379.03
2022-11-24T17:03:37.309Z,58364.53
2022-11-24T17:06:05.676Z,58333.50
2022-11-24T17:08:36.167Z,58414.22
2022-11-24T17:11:10.708Z,58383.16
2022-11-24T17:13:37.795Z,58414.22
2022-11-24T17:16:06.441Z,58403.88
2022-11-24T17:18:34.204Z,58416.28
2022-11-24T17:21:07.881Z,58408.00
2022-11-24T17:23:36.867Z,58418.34
2022-11-24T17:26:07.135Z,58397.66
2022-11-24T17:28:35.411Z,58656.41
2022-11-24T17:31:23.810Z,58492.88
2022-11-24T17:33:52.443Z,58455.63
2022-11-24T17:36:21.233Z,58401.81
2022-11-24T17:38:49.970Z,58486.66
2022-11-24T17:41:18.319Z,58470.13
2022-11-24T17:43:52.410Z,58488.75
2022-11-24T17:46:19.511Z,58803.41
2022-11-24T17:48:47.178Z,58519.78
2022-11-24T17:51:18.853Z,58559.13
2022-11-24T17:53:46.627Z,58536.34
2022-11-24T17:56:18.914Z,58528.06
2022-11-24T17:58:45.394Z,58563.25
2022-11-24T18:01:14.887Z,58548.78
2022-11-24T18:03:42.074Z,58534.28
2022-11-24T18:06:13.976Z,58559.13
2022-11-24T18:08:42.032Z,58534.28
2022-11-24T18:11:10.322Z,58546.69
2022-11-24T18:16:24.381Z,58461.84
2022-11-24T18:19:07.308Z,58428.72
2022-11-24T18:21:34.647Z,58486.66
2022-11-24T18:24:01.053Z,58434.91
2022-11-24T18:26:27.454Z,58457.69
2022-11-24T18:28:54.100Z,58480.47
2022-11-24T18:31:22.147Z,58472.19
2022-11-24T18:33:48.748Z,58451.47
2022-11-24T18:36:17.521Z,58465.97
2022-11-24T18:38:44.243Z,58445.28
2022-11-24T18:41:12.615Z,58420.44
2022-11-24T18:43:40.640Z,58437.00
2022-11-24T18:46:13.116Z,58604.66
2022-11-24T18:48:41.318Z,58424.56
2022-11-24T18:51:14.713Z,58410.09
2022-11-24T18:53:43.058Z,58341.78
2022-11-24T18:56:15.799Z,58441.13
2022-11-24T18:58:43.982Z,58397.66
2022-11-24T19:01:19.593Z,58412.16
2022-11-24T19:03:52.568Z,58366.59
2022-11-24T19:06:29.099Z,58385.25
2022-11-24T19:08:58.113Z,58372.81
2022-11-24T19:11:28.439Z,58358.34
2022-11-24T19:13:56.875Z,58376.97
2022-11-24T19:16:24.735Z,58370.75
2022-11-24T19:18:54.312Z,58362.47
2022-11-24T19:21:22.603Z,58337.63
2022-11-24T19:23:50.350Z,58410.09
2022-11-24T19:26:18.429Z,58416.28
2022-11-24T19:28:45.444Z,58374.88
2022-11-24T19:31:14.671Z,58472.19
2022-11-24T19:33:41.990Z,58374.88
2022-11-24T19:36:13.085Z,58327.28
2022-11-24T19:38:41.307Z,58374.88
2022-11-24T19:41:11.113Z,58395.59
2022-11-24T19:43:39.312Z,58366.59
2022-11-24T19:46:08.019Z,58358.34
2022-11-24T19:48:46.894Z,58376.97
2022-11-24T19:51:16.110Z,58366.59
2022-11-24T19:53:43.531Z,58395.59
2022-11-24T19:56:13.946Z,58403.88
2022-11-24T19:58:42.534Z,58542.56
2022-11-24T20:01:39.700Z,58461.84
2022-11-24T20:04:09.034Z,58350.06
2022-11-24T20:06:37.897Z,58399.72
2022-11-24T20:09:07.449Z,58381.09
2022-11-24T20:11:34.337Z,58310.72
2022-11-24T20:14:00.895Z,58350.06
2022-11-24T20:16:31.812Z,58341.78
2022-11-24T20:19:07.069Z,58319.00
2022-11-24T20:21:34.938Z,58316.94
2022-11-24T20:24:04.677Z,58339.69
2022-11-24T20:26:34.668Z,58333.50
2022-11-24T20:29:01.458Z,58285.88
2022-11-24T20:31:33.425Z,58265.19
2022-11-24T20:34:01.077Z,58465.97
2022-11-24T20:36:29.571Z,58310.72
2022-11-24T20:38:56.220Z,58310.72
2022-11-24T20:41:25.158Z,58263.13
2022-11-24T20:43:52.730Z,58285.88
2022-11-24T20:46:28.207Z,58271.41
2022-11-24T20:48:55.309Z,58310.72
2022-11-24T20:51:24.391Z,58279.66
2022-11-24T20:53:53.286Z,58261.03
2022-11-24T20:56:25.078Z,58292.09
2022-11-24T20:58:51.979Z,58306.59
2022-11-24T21:01:23.944Z,58263.13
2022-11-24T21:03:55.623Z,58308.66
2022-11-24T21:06:22.446Z,58437.00
2022-11-24T21:08:49.337Z,58283.81
2022-11-24T21:11:16.350Z,58277.59
2022-11-24T21:13:44.880Z,58314.84
2022-11-24T21:16:23.122Z,58329.34
2022-11-24T21:18:51.514Z,58350.06
2022-11-24T21:21:21.864Z,58337.63
2022-11-24T21:23:49.047Z,58347.97
2022-11-24T21:26:17.362Z,58350.06
2022-11-24T21:28:45.333Z,58333.50
2022-11-24T21:31:15.234Z,58352.13
2022-11-24T21:33:43.185Z,58327.28
2022-11-24T21:36:09.610Z,58316.94
2022-11-24T21:38:36.114Z,58310.72
2022-11-24T21:41:05.361Z,58323.13
2022-11-24T21:43:32.322Z,58327.28
2022-11-24T21:46:07.396Z,58325.22
2022-11-24T21:48:35.167Z,58391.44
2022-11-24T21:51:05.352Z,58383.16
2022-11-24T21:53:33.781Z,58352.13
2022-11-24T21:56:02.559Z,58345.91
2022-11-24T21:58:29.262Z,58362.47
2022-11-24T22:01:01.839Z,58515.66
2022-11-24T22:03:28.410Z,58331.41
2022-11-24T22:05:55.978Z,58410.09
2022-11-24T22:08:23.390Z,58443.19
2022-11-24T22:10:49.806Z,58445.28
2022-11-24T22:13:16.367Z,58439.06
2022-11-24T22:15:43.107Z,58494.94
2022-11-24T22:18:09.647Z,58430.78
2022-11-24T22:20:36.124Z,58465.97
2022-11-24T22:23:02.527Z,58492.88
2022-11-24T22:25:29.110Z,58472.19
2022-11-24T22:27:56.658Z,58499.09
2022-11-24T22:30:23.104Z,58497.03
2022-11-24T22:32:49.618Z,58548.78
2022-11-24T22:35:16.099Z,58486.66
2022-11-24T22:37:42.504Z,58704.03
2022-11-24T22:40:09.082Z,58557.06
2022-11-24T22:42:35.444Z,58546.69
2022-11-24T22:45:01.826Z,58540.50
2022-11-24T22:47:28.454Z,58561.19
2022-11-24T22:49:54.809Z,58602.59
2022-11-24T22:52:21.391Z,58561.19
2022-11-24T22:54:47.762Z,58554.97
2022-11-24T22:57:14.266Z,58523.94
2022-11-24T22:59:40.709Z,58559.13
2022-11-24T23:02:07.341Z,58550.84
2022-11-24T23:04:34.138Z,58521.88
2022-11-24T23:07:00.757Z,58565.34
2022-11-24T23:09:27.293Z,58523.94
2022-11-24T23:11:53.659Z,58507.38
2022-11-24T23:14:20.148Z,58507.38
2022-11-24T23:16:46.659Z,58523.94
2022-11-24T23:19:13.085Z,58470.13
2022-11-24T23:21:39.726Z,58465.97
2022-11-24T23:24:06.840Z,58751.66
2022-11-24T23:26:40.081Z,58511.50
2022-11-24T23:29:06.930Z,58441.13
2022-11-24T23:31:34.072Z,58526.00
2022-11-24T23:34:04.014Z,58492.88
2022-11-24T23:36:30.793Z,58788.91
2022-11-24T23:39:04.962Z,58486.66
2022-11-24T23:41:31.799Z,58457.69
2022-11-24T23:43:58.327Z,58453.56
2022-11-24T23:46:26.809Z,58488.75
2022-11-24T23:48:54.155Z,58505.31
2022-11-24T23:51:25.395Z,58480.47
2022-11-24T23:53:52.511Z,58443.19
2022-11-24T23:56:21.425Z,58490.81
2022-11-24T23:58:48.703Z,58470.13
